This is the latest recevied weather packets stored in our database for station/object DO0SOB-11. If no packets are shown the sender has not sent any weather packets the latest 10 day(s).
| Time | Temp. | Humidity | Pressure | Rain* | Wind** | Luminosity | Snow |
|---|---|---|---|---|---|---|---|
| 1777826686 | 18.33° C | 86% | 972.6 hPa | - | - | - | - |
| 1777825787 | 18.33° C | 85% | 972.5 hPa | - | - | - | - |
| 1777824886 | 18.33° C | 83% | 972.4 hPa | - | - | - | - |
| 1777823986 | 18.33° C | 84% | 972.4 hPa | - | - | - | - |
| 1777823086 | 17.78° C | 95% | 972.4 hPa | - | - | - | - |
| 1777822186 | 18.33° C | 81% | 972.4 hPa | - | - | - | - |
| 1777821286 | 18.89° C | 73% | 972.3 hPa | - | - | - | - |
| 1777820386 | 20° C | 64% | 972.3 hPa | - | - | - | - |
| 1777819486 | 20.56° C | 56% | 972.3 hPa | - | - | - | - |
| 1777818585 | 20.56° C | 54% | 972.3 hPa | - | - | - | - |
| 1777817685 | 20.56° C | 50% | 972.2 hPa | - | - | - | - |
| 1777816785 | 20.56° C | 48% | 972.4 hPa | - | - | - | - |
| 1777815885 | 20.56° C | 45% | 972.5 hPa | - | - | - | - |
| 1777814985 | 21.67° C | 40% | 972.5 hPa | - | - | - | - |
| 1777814085 | 21.67° C | 44% | 972.6 hPa | - | - | - | - |
| 1777813185 | 22.78° C | 39% | 972.7 hPa | - | - | - | - |
| 1777812285 | 22.78° C | 42% | 972.7 hPa | - | - | - | - |
| 1777811385 | 23.33° C | 38% | 972.6 hPa | - | - | - | - |
| 1777810485 | 22.78° C | 46% | 972.8 hPa | - | - | - | - |
| 1777809585 | 21.67° C | 42% | 972.8 hPa | - | - | - | - |
| 1777808685 | 23.33° C | 41% | 972.8 hPa | - | - | - | - |
| 1777807785 | 23.33° C | 41% | 973 hPa | - | - | - | - |
| 1777806885 | 22.78° C | 42% | 973.1 hPa | - | - | - | - |
| 1777805985 | 21.67° C | 42% | 973.2 hPa | - | - | - | - |
| 1777805084 | 21.11° C | 46% | 973.4 hPa | - | - | - | - |
* Rain since midnight (hover to see other rain measurements)
** Current wind speed in m/s (hover to see current wind gust speed)